Time;durP1;ratioP1;P1;durP2;ratioP2;P2;SDS_P1;SDS_P2;PMS_P1;PMS_P2;Temp;Humidity;BMP_temperature;BMP_pressure;BME280_temperature;BME280_humidity;BME280_pressure;Samples;Min_cycle;Max_cycle;Signal;HPM_P1;HPM_P2
2021/05/14 00:02:25;;;;;;;6.38;1.60;;;;;;;;;;5021180;28;20478;-37
2021/05/14 00:04:50;;;;;;;1.17;1.05;;;;;;;;;;5017089;28;20030;-37
2021/05/14 00:07:16;;;;;;;8.13;2.55;;;;;;;;;;5019330;28;20049;-37
2021/05/14 00:09:42;;;;;;;5.30;1.63;;;;;;;;;;5020106;28;20037;-37
2021/05/14 00:12:07;;;;;;;2.30;1.20;;;;;;;;;;5023073;28;20136;-37
2021/05/14 00:14:32;;;;;;;3.97;1.63;;;;;;;;;;5020818;28;20124;-37
2021/05/14 00:16:58;;;;;;;5.45;1.40;;;;;;;;;;5019643;28;20041;-37
2021/05/14 00:19:23;;;;;;;1.52;0.90;;;;;;;;;;5020674;28;20459;-37
2021/05/14 00:21:48;;;;;;;2.80;1.67;;;;;;;;;;5024754;28;20036;-36
2021/05/14 00:24:14;;;;;;;6.22;2.20;;;;;;;;;;5020442;28;20056;-37
2021/05/14 00:26:39;;;;;;;2.72;1.88;;;;;;;;;;5023685;28;20084;-36
2021/05/14 00:29:04;;;;;;;1.98;1.15;;;;;;;;;;5023345;28;20030;-37
2021/05/14 00:31:30;;;;;;;2.72;0.88;;;;;;;;;;5020188;28;20038;-37
2021/05/14 00:33:55;;;;;;;2.45;0.98;;;;;;;;;;5017001;28;20038;-37
2021/05/14 00:36:20;;;;;;;5.35;2.42;;;;;;;;;;5021506;28;20041;-37
2021/05/14 00:38:45;;;;;;;4.50;2.13;;;;;;;;;;5020285;28;20635;-37
2021/05/14 00:41:11;;;;;;;2.65;0.30;;;;;;;;;;5022753;28;20047;-37
2021/05/14 00:43:36;;;;;;;7.93;1.48;;;;;;;;;;5022174;28;20022;-36
2021/05/14 00:46:02;;;;;;;3.35;1.58;;;;;;;;;;5019081;28;20044;-36
2021/05/14 00:48:28;;;;;;;1.50;1.08;;;;;;;;;;5022895;28;21105;-36
2021/05/14 00:50:54;;;;;;;1.58;0.57;;;;;;;;;;5019010;28;20037;-36
2021/05/14 00:53:19;;;;;;;6.82;0.80;;;;;;;;;;5021936;28;20030;-36
2021/05/14 00:55:44;;;;;;;8.73;2.42;;;;;;;;;;5022885;28;20112;-36
2021/05/14 00:58:10;;;;;;;6.80;1.08;;;;;;;;;;5022991;28;20033;-37
2021/05/14 01:00:35;;;;;;;10.93;1.95;;;;;;;;;;5021729;28;20517;-37
2021/05/14 01:03:00;;;;;;;2.45;1.00;;;;;;;;;;5016951;28;20466;-37
2021/05/14 01:05:26;;;;;;;3.50;1.48;;;;;;;;;;5024607;28;20149;-36
2021/05/14 01:07:51;;;;;;;7.90;2.53;;;;;;;;;;5022862;28;20033;-37
2021/05/14 01:10:18;;;;;;;6.25;1.67;;;;;;;;;;5026161;28;20466;-37
2021/05/14 01:12:43;;;;;;;3.58;1.85;;;;;;;;;;5021077;28;20030;-37
2021/05/14 01:15:09;;;;;;;5.63;0.80;;;;;;;;;;5017954;28;20116;-38
2021/05/14 01:17:34;;;;;;;6.75;1.65;;;;;;;;;;5021967;28;20712;-37
2021/05/14 01:20:00;;;;;;;5.88;0.88;;;;;;;;;;5021026;28;20030;-37
2021/05/14 01:22:27;;;;;;;7.32;2.05;;;;;;;;;;5022271;28;20061;-37
2021/05/14 01:24:52;;;;;;;3.08;1.55;;;;;;;;;;5019082;28;20132;-37
2021/05/14 01:27:18;;;;;;;2.70;0.70;;;;;;;;;;5019739;28;20398;-37
2021/05/14 01:29:44;;;;;;;4.50;1.13;;;;;;;;;;5018950;28;20071;-37
2021/05/14 01:32:09;;;;;;;3.95;1.10;;;;;;;;;;5018916;28;20037;-37
2021/05/14 01:34:34;;;;;;;1.42;0.68;;;;;;;;;;5021119;28;20034;-37
2021/05/14 01:37:00;;;;;;;4.70;0.45;;;;;;;;;;5017155;28;20056;-37
2021/05/14 01:39:26;;;;;;;2.25;0.90;;;;;;;;;;5019956;28;20076;-37
2021/05/14 01:41:52;;;;;;;0.93;0.50;;;;;;;;;;5020423;28;20042;-37
2021/05/14 01:44:17;;;;;;;3.72;1.15;;;;;;;;;;5018577;28;20984;-38
2021/05/14 01:46:42;;;;;;;7.65;3.20;;;;;;;;;;5018854;28;20056;-37
2021/05/14 01:49:07;;;;;;;2.08;0.70;;;;;;;;;;5016881;28;20630;-37
2021/05/14 01:51:33;;;;;;;1.40;0.55;;;;;;;;;;5019639;28;20293;-38
2021/05/14 01:53:58;;;;;;;6.13;1.35;;;;;;;;;;5019227;28;20736;-38
2021/05/14 01:56:24;;;;;;;1.25;0.75;;;;;;;;;;5004834;28;20034;-37
2021/05/14 01:58:49;;;;;;;2.42;0.93;;;;;;;;;;5019806;28;20591;-37
2021/05/14 02:01:15;;;;;;;16.98;2.45;;;;;;;;;;5020392;28;20402;-37
2021/05/14 02:03:40;;;;;;;2.58;0.55;;;;;;;;;;5017411;28;20033;-37
2021/05/14 02:06:06;;;;;;;0.85;0.68;;;;;;;;;;5017642;28;20026;-37
2021/05/14 02:08:31;;;;;;;3.85;0.50;;;;;;;;;;5015699;28;20056;-37
2021/05/14 02:10:57;;;;;;;1.70;0.43;;;;;;;;;;5017752;28;20025;-37
2021/05/14 02:13:22;;;;;;;3.55;0.65;;;;;;;;;;5019779;28;20026;-37
2021/05/14 02:15:47;;;;;;;3.70;1.33;;;;;;;;;;5018434;28;20030;-37
2021/05/14 02:18:13;;;;;;;2.78;0.95;;;;;;;;;;5013846;28;20025;-37
2021/05/14 02:20:38;;;;;;;3.15;0.85;;;;;;;;;;5013689;28;20034;-37
2021/05/14 02:23:03;;;;;;;13.65;1.92;;;;;;;;;;5024928;28;20029;-37
2021/05/14 02:25:29;;;;;;;2.08;1.10;;;;;;;;;;5011225;28;20038;-37
2021/05/14 02:27:54;;;;;;;5.38;1.98;;;;;;;;;;5018475;28;20041;-37
2021/05/14 02:30:20;;;;;;;4.25;0.95;;;;;;;;;;5018513;28;20478;-37
2021/05/14 02:32:46;;;;;;;16.67;2.78;;;;;;;;;;5020780;28;20064;-37
2021/05/14 02:35:11;;;;;;;16.83;2.58;;;;;;;;;;5015716;28;20057;-36
2021/05/14 02:37:37;;;;;;;8.85;3.40;;;;;;;;;;5025198;28;20096;-37
2021/05/14 02:40:03;;;;;;;6.20;3.10;;;;;;;;;;5018241;28;20037;-37
2021/05/14 02:42:28;;;;;;;9.15;1.33;;;;;;;;;;5014569;28;20141;-37
2021/05/14 02:44:54;;;;;;;1.42;0.70;;;;;;;;;;5017016;28;20029;-37
2021/05/14 02:47:19;;;;;;;7.85;1.88;;;;;;;;;;5017666;28;20026;-37
2021/05/14 02:49:45;;;;;;;10.10;0.73;;;;;;;;;;5012848;28;20038;-37
2021/05/14 02:52:10;;;;;;;8.15;1.77;;;;;;;;;;5018817;28;20046;-37
2021/05/14 02:54:37;;;;;;;6.22;1.75;;;;;;;;;;5020272;28;20061;-37
2021/05/14 02:57:03;;;;;;;5.50;1.88;;;;;;;;;;5017014;28;20059;-37
2021/05/14 02:59:29;;;;;;;12.57;3.35;;;;;;;;;;5015402;28;20033;-37
2021/05/14 03:01:54;;;;;;;9.95;3.65;;;;;;;;;;5034552;28;20427;-37
2021/05/14 03:04:19;;;;;;;7.60;4.20;;;;;;;;;;5031021;28;20029;-37
2021/05/14 03:06:45;;;;;;;8.95;3.17;;;;;;;;;;5017305;28;20479;-37
2021/05/14 03:09:11;;;;;;;26.65;5.82;;;;;;;;;;5013719;28;20038;-37
2021/05/14 03:11:36;;;;;;;19.90;5.55;;;;;;;;;;5014504;28;20084;-37
2021/05/14 03:14:03;;;;;;;13.90;3.92;;;;;;;;;;5019724;28;20041;-37
2021/05/14 03:16:29;;;;;;;6.15;3.45;;;;;;;;;;5018539;28;20084;-37
2021/05/14 03:18:54;;;;;;;14.95;3.78;;;;;;;;;;5018436;28;20499;-37
2021/05/14 03:21:19;;;;;;;27.85;3.90;;;;;;;;;;5014889;28;20021;-38
2021/05/14 03:23:44;;;;;;;22.70;4.07;;;;;;;;;;5018124;28;20418;-37
2021/05/14 03:26:10;;;;;;;20.67;5.93;;;;;;;;;;5000895;28;20522;-37
2021/05/14 03:28:35;;;;;;;12.35;2.45;;;;;;;;;;5015579;28;20938;-37
2021/05/14 03:31:00;;;;;;;8.27;2.95;;;;;;;;;;5018546;28;20060;-37
2021/05/14 03:33:26;;;;;;;26.55;4.70;;;;;;;;;;5019506;28;20483;-37
2021/05/14 03:35:52;;;;;;;4.88;2.15;;;;;;;;;;5020572;28;20034;-37
2021/05/14 03:38:17;;;;;;;13.40;4.10;;;;;;;;;;5019390;28;20129;-37
2021/05/14 03:40:46;;;;;;;7.53;3.40;;;;;;;;;;5019764;28;20112;-37
2021/05/14 03:43:11;;;;;;;19.55;5.43;;;;;;;;;;5018200;28;20030;-37
2021/05/14 03:45:37;;;;;;;19.38;4.22;;;;;;;;;;5020305;28;20030;-37
2021/05/14 03:48:17;;;;;;;9.75;3.88;;;;;;;;;;5019509;28;20096;-36
2021/05/14 03:50:42;;;;;;;8.63;2.42;;;;;;;;;;5020613;28;20516;-36
2021/05/14 03:53:08;;;;;;;14.68;3.08;;;;;;;;;;5018549;28;20033;-37
2021/05/14 03:55:33;;;;;;;21.27;3.80;;;;;;;;;;5024593;28;20072;-37
2021/05/14 03:57:58;;;;;;;14.07;1.67;;;;;;;;;;5019676;28;20573;-37
2021/05/14 04:00:24;;;;;;;16.88;2.70;;;;;;;;;;5022132;28;20033;-37
2021/05/14 04:02:51;;;;;;;13.85;2.25;;;;;;;;;;5019118;28;20053;-37
2021/05/14 04:05:17;;;;;;;11.43;2.67;;;;;;;;;;5017394;28;20084;-37
2021/05/14 04:07:42;;;;;;;15.35;2.30;;;;;;;;;;5015991;28;20034;-37
2021/05/14 04:15:09;;;;;;;10.73;2.72;;;;;;;;;;5017558;28;20041;-37
2021/05/14 04:17:34;;;;;;;7.80;2.13;;;;;;;;;;4999921;28;20048;-37
2021/05/14 04:20:00;;;;;;;4.90;2.33;;;;;;;;;;5016111;28;20414;-37
2021/05/14 04:22:26;;;;;;;9.95;2.65;;;;;;;;;;5018638;28;20035;-37
2021/05/14 04:24:51;;;;;;;17.33;2.15;;;;;;;;;;5016800;28;20049;-37
2021/05/14 04:27:17;;;;;;;4.57;1.45;;;;;;;;;;5019525;28;20033;-37
2021/05/14 04:29:43;;;;;;;8.45;3.10;;;;;;;;;;5016402;28;20071;-37
2021/05/14 04:32:08;;;;;;;4.13;1.08;;;;;;;;;;5015970;28;20038;-37
2021/05/14 04:34:33;;;;;;;4.72;2.33;;;;;;;;;;5016508;28;20041;-37
2021/05/14 04:36:58;;;;;;;7.60;1.70;;;;;;;;;;5017074;28;20037;-37
2021/05/14 04:39:24;;;;;;;0.60;0.52;;;;;;;;;;5012687;28;20117;-37
2021/05/14 04:41:49;;;;;;;12.52;0.93;;;;;;;;;;5019570;28;20586;-37
2021/05/14 04:44:15;;;;;;;11.30;1.35;;;;;;;;;;5016822;28;20038;-37
2021/05/14 04:46:41;;;;;;;6.18;1.55;;;;;;;;;;5015285;28;20499;-38
2021/05/14 04:49:06;;;;;;;5.10;1.20;;;;;;;;;;5005005;28;20050;-38
2021/05/14 04:51:32;;;;;;;1.55;0.85;;;;;;;;;;5020449;28;20033;-37
2021/05/14 04:53:58;;;;;;;4.50;1.17;;;;;;;;;;5020683;28;20084;-37
2021/05/14 04:56:23;;;;;;;4.07;1.23;;;;;;;;;;5018237;28;20038;-37
2021/05/14 04:58:52;;;;;;;12.38;2.40;;;;;;;;;;5022444;28;20450;-37
2021/05/14 05:01:17;;;;;;;3.90;1.60;;;;;;;;;;5015813;28;20095;-37
2021/05/14 05:03:43;;;;;;;2.92;1.42;;;;;;;;;;5019884;28;20029;-37
2021/05/14 05:06:09;;;;;;;3.88;1.30;;;;;;;;;;5017073;28;20103;-37
2021/05/14 05:08:34;;;;;;;2.72;0.73;;;;;;;;;;5015373;28;20668;-37
2021/05/14 05:10:59;;;;;;;1.42;0.70;;;;;;;;;;5018598;28;20094;-42
2021/05/14 05:13:25;;;;;;;4.38;0.73;;;;;;;;;;5022178;28;20029;-38
2021/05/14 05:15:50;;;;;;;7.60;1.50;;;;;;;;;;5016396;28;20564;-37
2021/05/14 05:18:15;;;;;;;3.65;0.95;;;;;;;;;;5017594;28;20176;-38
2021/05/14 05:20:41;;;;;;;8.85;2.55;;;;;;;;;;5017989;28;20033;-37
2021/05/14 05:23:06;;;;;;;1.05;0.30;;;;;;;;;;5020988;28;20021;-37
2021/05/14 05:25:31;;;;;;;7.18;0.57;;;;;;;;;;5019092;28;20037;-38
2021/05/14 05:27:57;;;;;;;6.47;1.23;;;;;;;;;;5017995;28;20033;-37
2021/05/14 05:30:24;;;;;;;4.13;0.98;;;;;;;;;;5018159;28;20034;-37
2021/05/14 05:32:49;;;;;;;0.10;0.10;;;;;;;;;;5016465;28;20030;-38
2021/05/14 05:35:14;;;;;;;4.18;0.90;;;;;;;;;;5017454;28;20029;-37
2021/05/14 05:37:39;;;;;;;2.42;0.82;;;;;;;;;;5019824;28;20037;-38
2021/05/14 05:40:05;;;;;;;8.98;1.25;;;;;;;;;;5021225;28;20036;-37
2021/05/14 05:42:30;;;;;;;3.55;0.47;;;;;;;;;;5016953;28;20030;-37
2021/05/14 05:44:56;;;;;;;4.10;0.63;;;;;;;;;;5020062;28;20546;-37
2021/05/14 05:47:21;;;;;;;4.53;1.08;;;;;;;;;;5016844;28;20418;-37
2021/05/14 05:49:47;;;;;;;2.83;0.95;;;;;;;;;;5020909;28;20040;-37
2021/05/14 05:52:12;;;;;;;3.47;0.77;;;;;;;;;;5020700;28;20040;-37
2021/05/14 05:54:37;;;;;;;2.95;1.08;;;;;;;;;;5018743;28;20034;-38
2021/05/14 05:57:02;;;;;;;5.32;1.77;;;;;;;;;;5020617;28;20109;-38
2021/05/14 05:59:28;;;;;;;2.47;0.82;;;;;;;;;;5015385;28;20589;-37
2021/05/14 06:01:53;;;;;;;3.58;1.58;;;;;;;;;;5021635;28;20018;-37
2021/05/14 06:04:19;;;;;;;6.10;1.10;;;;;;;;;;5017592;28;20117;-37
2021/05/14 06:06:44;;;;;;;12.88;1.85;;;;;;;;;;5018627;28;20074;-38
2021/05/14 06:09:09;;;;;;;3.83;1.25;;;;;;;;;;5017576;28;20045;-37
2021/05/14 06:11:35;;;;;;;1.80;0.55;;;;;;;;;;5019396;28;20029;-37
2021/05/14 06:14:00;;;;;;;5.40;1.75;;;;;;;;;;5019478;28;20643;-37
2021/05/14 06:16:27;;;;;;;5.15;1.45;;;;;;;;;;5017970;28;20667;-37
2021/05/14 06:19:17;;;;;;;2.70;0.88;;;;;;;;;;5017210;28;20033;-37
2021/05/14 06:21:44;;;;;;;4.60;2.22;;;;;;;;;;5014670;28;20036;-37
2021/05/14 06:24:10;;;;;;;6.95;2.75;;;;;;;;;;5014164;28;20095;-37
2021/05/14 06:26:35;;;;;;;0.63;0.63;;;;;;;;;;5021872;28;20037;-37
2021/05/14 06:29:00;;;;;;;6.50;1.42;;;;;;;;;;5017394;28;20034;-37
2021/05/14 06:31:26;;;;;;;5.55;1.65;;;;;;;;;;5021754;28;20029;-37
2021/05/14 06:33:51;;;;;;;6.18;3.65;;;;;;;;;;5019398;28;22453;-37
2021/05/14 06:36:16;;;;;;;2.17;1.38;;;;;;;;;;5019160;28;20038;-37
2021/05/14 06:38:41;;;;;;;8.50;3.35;;;;;;;;;;5020362;28;20040;-37
2021/05/14 06:41:07;;;;;;;5.80;3.97;;;;;;;;;;5015312;28;20550;-37
2021/05/14 06:43:32;;;;;;;6.60;2.80;;;;;;;;;;5017424;28;20041;-37
2021/05/14 06:46:01;;;;;;;9.57;3.33;;;;;;;;;;5018529;28;20115;-38
2021/05/14 06:48:26;;;;;;;7.32;6.57;;;;;;;;;;5013631;28;20113;-38
2021/05/14 06:50:52;;;;;;;11.02;5.47;;;;;;;;;;4998809;28;20493;-37
2021/05/14 06:53:17;;;;;;;11.80;8.98;;;;;;;;;;5018826;28;20036;-37
2021/05/14 06:55:42;;;;;;;7.57;5.00;;;;;;;;;;5019108;28;20034;-37
2021/05/14 06:58:08;;;;;;;5.90;2.60;;;;;;;;;;5014555;28;20034;-37
2021/05/14 07:00:33;;;;;;;2.33;1.25;;;;;;;;;;5016414;28;20517;-38
2021/05/14 07:02:59;;;;;;;8.18;2.20;;;;;;;;;;5017007;28;20394;-38
2021/05/14 07:05:24;;;;;;;8.95;2.20;;;;;;;;;;5018983;28;20036;-38
2021/05/14 07:07:51;;;;;;;31.30;3.13;;;;;;;;;;5015207;28;20372;-38
2021/05/14 07:10:16;;;;;;;7.88;3.47;;;;;;;;;;5012231;28;20514;-38
2021/05/14 07:12:42;;;;;;;1.52;0.98;;;;;;;;;;5015806;28;20041;-38
2021/05/14 07:15:08;;;;;;;2.05;1.10;;;;;;;;;;5015624;28;20037;-39
2021/05/14 07:17:34;;;;;;;22.90;1.17;;;;;;;;;;5015275;28;20045;-35
2021/05/14 07:19:59;;;;;;;1.52;0.82;;;;;;;;;;5016338;28;20040;-34
2021/05/14 07:22:25;;;;;;;1.67;0.47;;;;;;;;;;5016981;28;20478;-35
2021/05/14 07:24:50;;;;;;;0.88;0.40;;;;;;;;;;5013004;28;20492;-35
2021/05/14 07:27:16;;;;;;;6.18;0.50;;;;;;;;;;5015383;28;20041;-37
2021/05/14 07:29:42;;;;;;;0.65;0.20;;;;;;;;;;5012626;28;20739;-36
2021/05/14 07:32:08;;;;;;;4.18;0.77;;;;;;;;;;5014568;28;20038;-36
2021/05/14 07:34:33;;;;;;;0.40;0.30;;;;;;;;;;5012693;28;20026;-36
2021/05/14 07:36:58;;;;;;;2.10;0.55;;;;;;;;;;5014083;28;20029;-36
2021/05/14 07:39:24;;;;;;;1.27;0.45;;;;;;;;;;5014425;28;20649;-36
2021/05/14 07:41:49;;;;;;;2.78;1.75;;;;;;;;;;5015383;28;20121;-36
2021/05/14 07:44:14;;;;;;;1.90;0.98;;;;;;;;;;5016594;28;20053;-36
2021/05/14 07:46:40;;;;;;;14.23;1.27;;;;;;;;;;5012433;28;20064;-36
2021/05/14 07:49:05;;;;;;;2.47;1.17;;;;;;;;;;5015476;28;20033;-36
2021/05/14 07:51:30;;;;;;;6.38;0.95;;;;;;;;;;5018036;28;20332;-37
2021/05/14 07:53:57;;;;;;;6.53;0.57;;;;;;;;;;5010859;28;20041;-36
2021/05/14 07:56:22;;;;;;;6.50;4.63;;;;;;;;;;5020741;28;20046;-35
2021/05/14 07:58:47;;;;;;;0.85;0.65;;;;;;;;;;5016459;28;20041;-37
2021/05/14 08:01:13;;;;;;;0.70;0.55;;;;;;;;;;5017554;28;20037;-37
2021/05/14 08:03:38;;;;;;;7.22;1.02;;;;;;;;;;5014460;28;20042;-37
2021/05/14 08:06:03;;;;;;;6.32;0.90;;;;;;;;;;5018019;28;20036;-37
2021/05/14 08:08:32;;;;;;;0.52;0.40;;;;;;;;;;5012463;28;20080;-36
2021/05/14 08:10:58;;;;;;;2.42;0.63;;;;;;;;;;5017183;28;20125;-36
2021/05/14 08:13:24;;;;;;;19.88;5.22;;;;;;;;;;5015724;28;20132;-37
2021/05/14 08:15:49;;;;;;;16.25;3.53;;;;;;;;;;5013145;28;20098;-36
2021/05/14 08:18:14;;;;;;;1.30;0.82;;;;;;;;;;5014263;28;20045;-36
2021/05/14 08:20:41;;;;;;;3.80;1.15;;;;;;;;;;5017036;28;20033;-36
2021/05/14 08:23:07;;;;;;;1.95;0.77;;;;;;;;;;5019709;28;20617;-37
2021/05/14 08:25:34;;;;;;;1.15;0.60;;;;;;;;;;5017912;28;20447;-35
2021/05/14 08:28:00;;;;;;;2.08;0.30;;;;;;;;;;5024253;28;20140;-37
2021/05/14 08:30:25;;;;;;;1.63;1.45;;;;;;;;;;5021402;28;20560;-38
2021/05/14 08:32:50;;;;;;;3.88;1.75;;;;;;;;;;5019239;28;20503;-42
2021/05/14 08:35:16;;;;;;;7.22;1.35;;;;;;;;;;5020131;28;20091;-37
2021/05/14 08:37:41;;;;;;;1.73;0.82;;;;;;;;;;5021215;28;20037;-37
2021/05/14 08:40:08;;;;;;;4.10;0.20;;;;;;;;;;5018763;28;20044;-38
2021/05/14 08:42:38;;;;;;;1.27;0.70;;;;;;;;;;5016462;28;20064;-37
2021/05/14 08:45:04;;;;;;;0.50;0.20;;;;;;;;;;5018606;28;20021;-37
2021/05/14 08:47:30;;;;;;;0.20;0.17;;;;;;;;;;5019955;28;20041;-37
2021/05/14 08:49:58;;;;;;;3.03;0.60;;;;;;;;;;5021412;28;20570;-37
2021/05/14 08:52:24;;;;;;;1.15;0.35;;;;;;;;;;5017404;28;20124;-36
2021/05/14 08:54:49;;;;;;;2.53;1.23;;;;;;;;;;5018467;28;20084;-36
2021/05/14 08:57:15;;;;;;;5.40;1.65;;;;;;;;;;5017448;28;20030;-37
2021/05/14 08:59:40;;;;;;;0.25;0.22;;;;;;;;;;5017475;28;20038;-38
2021/05/14 09:02:05;;;;;;;1.88;1.17;;;;;;;;;;5014414;28;20574;-38
2021/05/14 09:04:33;;;;;;;2.13;0.55;;;;;;;;;;5018127;28;20037;-36
2021/05/14 09:06:58;;;;;;;3.78;1.52;;;;;;;;;;5018923;28;20022;-37
2021/05/14 09:09:23;;;;;;;2.30;0.63;;;;;;;;;;5016486;28;20695;-37
2021/05/14 09:11:51;;;;;;;1.67;0.82;;;;;;;;;;5018296;28;20044;-36
2021/05/14 09:14:32;;;;;;;2.20;0.68;;;;;;;;;;5016468;28;20467;-36
2021/05/14 09:17:05;;;;;;;1.45;0.75;;;;;;;;;;5017581;28;20045;-37
2021/05/14 09:19:31;;;;;;;3.60;1.25;;;;;;;;;;5018814;28;20076;-37
2021/05/14 09:22:15;;;;;;;0.60;0.40;;;;;;;;;;5017700;28;20485;-37
2021/05/14 09:24:42;;;;;;;3.05;1.23;;;;;;;;;;5018902;28;20497;-37
2021/05/14 09:27:18;;;;;;;3.17;0.90;;;;;;;;;;5018109;28;20376;-36
2021/05/14 09:29:44;;;;;;;4.05;2.17;;;;;;;;;;5015605;28;20050;-37
2021/05/14 09:32:22;;;;;;;3.72;2.17;;;;;;;;;;5018994;28;20501;-36
2021/05/14 09:34:48;;;;;;;2.33;0.82;;;;;;;;;;5015766;28;20072;-36
2021/05/14 09:37:14;;;;;;;1.30;0.88;;;;;;;;;;5017828;28;20496;-35
2021/05/14 09:39:39;;;;;;;4.82;2.53;;;;;;;;;;5016037;28;20036;-37
2021/05/14 09:42:05;;;;;;;2.88;0.95;;;;;;;;;;5016675;28;20033;-36
2021/05/14 09:44:30;;;;;;;0.80;0.55;;;;;;;;;;5017028;28;20022;-37
2021/05/14 09:46:58;;;;;;;8.02;1.55;;;;;;;;;;5018541;28;20103;-37
2021/05/14 09:49:24;;;;;;;0.40;0.32;;;;;;;;;;5017640;28;20037;-37
2021/05/14 09:51:53;;;;;;;2.63;1.30;;;;;;;;;;5014925;28;20058;-37
2021/05/14 09:54:26;;;;;;;6.32;1.83;;;;;;;;;;5013979;28;20152;-37
2021/05/14 09:57:25;;;;;;;3.45;0.68;;;;;;;;;;5012818;28;20044;-37
2021/05/14 09:59:50;;;;;;;3.15;1.02;;;;;;;;;;5017539;28;20092;-37
2021/05/14 10:02:22;;;;;;;0.80;0.50;;;;;;;;;;5014995;28;20066;-38
2021/05/14 10:04:47;;;;;;;2.83;1.15;;;;;;;;;;5017093;28;20042;-37
2021/05/14 10:07:13;;;;;;;1.98;1.30;;;;;;;;;;5016520;28;20044;-37
2021/05/14 10:09:39;;;;;;;7.70;1.25;;;;;;;;;;5018961;28;20037;-37
2021/05/14 10:12:06;;;;;;;6.70;1.23;;;;;;;;;;5016354;28;20046;-37
2021/05/14 10:14:32;;;;;;;16.17;1.33;;;;;;;;;;5018769;28;20561;-38
2021/05/14 10:16:58;;;;;;;6.13;2.47;;;;;;;;;;5014995;28;20033;-37
2021/05/14 10:19:23;;;;;;;7.32;1.73;;;;;;;;;;5015010;28;20042;-37
2021/05/14 10:21:48;;;;;;;4.70;2.00;;;;;;;;;;5017730;28;20030;-38
2021/05/14 10:24:33;;;;;;;3.15;2.00;;;;;;;;;;5016283;28;20430;-36
2021/05/14 10:27:12;;;;;;;1.85;1.23;;;;;;;;;;5014323;28;20061;-38
2021/05/14 10:29:37;;;;;;;4.65;1.73;;;;;;;;;;5013110;28;20052;-34
2021/05/14 10:32:02;;;;;;;2.22;1.13;;;;;;;;;;5014057;28;20124;-35
2021/05/14 10:34:32;;;;;;;8.50;1.85;;;;;;;;;;5010248;28;20048;-36
2021/05/14 10:36:57;;;;;;;6.82;1.67;;;;;;;;;;5016693;28;20109;-36
2021/05/14 10:39:36;;;;;;;4.70;1.10;;;;;;;;;;5015309;28;20030;-36
2021/05/14 10:42:01;;;;;;;4.63;1.30;;;;;;;;;;5014668;28;20033;-37
2021/05/14 10:44:45;;;;;;;1.30;0.85;;;;;;;;;;5013282;28;20051;-37
2021/05/14 10:47:26;;;;;;;3.28;1.42;;;;;;;;;;5014614;28;20040;-37
2021/05/14 10:50:00;;;;;;;2.50;1.65;;;;;;;;;;5015691;28;20072;-38
2021/05/14 10:52:27;;;;;;;7.47;2.00;;;;;;;;;;5014504;28;20030;-37
2021/05/14 10:54:53;;;;;;;1.67;1.23;;;;;;;;;;5014600;28;20041;-37
2021/05/14 10:57:37;;;;;;;5.50;2.80;;;;;;;;;;5018447;28;20092;-37
2021/05/14 11:00:21;;;;;;;1.88;0.90;;;;;;;;;;5017070;28;20125;-39
2021/05/14 11:03:06;;;;;;;6.25;1.73;;;;;;;;;;5017054;28;20030;-37
2021/05/14 11:05:31;;;;;;;3.40;1.00;;;;;;;;;;5014715;28;20053;-38
2021/05/14 11:07:57;;;;;;;4.28;2.10;;;;;;;;;;5018476;28;20080;-37
2021/05/14 11:10:26;;;;;;;5.35;1.25;;;;;;;;;;5016415;28;20390;-37
2021/05/14 11:12:51;;;;;;;15.40;1.90;;;;;;;;;;5016744;28;20041;-37
2021/05/14 11:15:19;;;;;;;4.00;1.67;;;;;;;;;;5017419;28;20717;-37
2021/05/14 11:18:03;;;;;;;3.08;2.08;;;;;;;;;;5017015;28;20053;-37
2021/05/14 11:20:39;;;;;;;6.07;1.10;;;;;;;;;;5012884;28;20033;-38
2021/05/14 11:23:23;;;;;;;12.70;2.15;;;;;;;;;;5001207;28;20454;-38
2021/05/14 11:25:48;;;;;;;2.97;1.17;;;;;;;;;;5015277;28;20720;-38
2021/05/14 11:28:13;;;;;;;7.00;1.55;;;;;;;;;;5014287;28;20113;-37
2021/05/14 11:30:39;;;;;;;2.83;1.52;;;;;;;;;;5014435;28;20033;-37
2021/05/14 11:33:04;;;;;;;15.02;3.60;;;;;;;;;;5013875;28;20041;-37
2021/05/14 11:35:30;;;;;;;11.65;2.75;;;;;;;;;;5015217;28;20562;-38
2021/05/14 11:37:57;;;;;;;7.07;2.33;;;;;;;;;;5016686;28;20029;-37
2021/05/14 11:40:22;;;;;;;17.10;4.82;;;;;;;;;;5017264;28;20050;-37
2021/05/14 11:42:49;;;;;;;6.13;2.22;;;;;;;;;;5019400;28;20041;-37
2021/05/14 11:45:16;;;;;;;9.18;1.63;;;;;;;;;;5018043;28;20032;-37
2021/05/14 11:47:47;;;;;;;8.23;2.50;;;;;;;;;;5015620;28;20046;-36
2021/05/14 11:50:12;;;;;;;;;;;;;;;;;;5016230;28;20076;-36
2021/05/14 11:52:39;;;;;;;18.70;2.20;;;;;;;;;;5018662;28;19913;-37
2021/05/14 11:55:07;;;;;;;18.75;8.57;;;;;;;;;;5017361;28;20486;-36
2021/05/14 11:57:33;;;;;;;9.93;4.72;;;;;;;;;;5016854;28;20038;-37
2021/05/14 11:59:59;;;;;;;5.82;3.20;;;;;;;;;;5017295;28;20059;-37
2021/05/14 12:02:33;;;;;;;8.10;5.95;;;;;;;;;;5016072;28;20569;-36
2021/05/14 12:04:58;;;;;;;20.38;14.07;;;;;;;;;;5017476;28;20068;-36
2021/05/14 12:07:23;;;;;;;13.80;10.95;;;;;;;;;;5018041;28;20062;-36
2021/05/14 12:09:55;;;;;;;6.50;4.03;;;;;;;;;;5019194;28;20037;-36
2021/05/14 12:12:21;;;;;;;8.15;5.55;;;;;;;;;;5016599;28;20128;-37
2021/05/14 12:14:46;;;;;;;8.82;4.25;;;;;;;;;;5014559;28;20116;-36
2021/05/14 12:17:12;;;;;;;7.15;3.22;;;;;;;;;;5011016;28;20117;-37
2021/05/14 12:19:47;;;;;;;9.13;4.00;;;;;;;;;;5014114;28;20531;-36
2021/05/14 12:22:12;;;;;;;6.18;4.15;;;;;;;;;;5014991;28;20596;-36
2021/05/14 12:24:39;;;;;;;10.32;3.08;;;;;;;;;;5016308;28;20042;-36
2021/05/14 12:27:06;;;;;;;7.15;2.53;;;;;;;;;;5017622;28;20092;-36
2021/05/14 12:29:31;;;;;;;9.63;4.88;;;;;;;;;;5032724;28;20064;-36
2021/05/14 12:31:58;;;;;;;1.92;1.17;;;;;;;;;;5017493;28;20799;-36
2021/05/14 12:34:23;;;;;;;3.67;2.08;;;;;;;;;;5015185;28;20038;-37
2021/05/14 12:36:53;;;;;;;9.38;2.15;;;;;;;;;;5017463;28;20287;-37
2021/05/14 12:39:19;;;;;;;20.00;1.38;;;;;;;;;;5017936;28;20063;-37
2021/05/14 12:41:55;;;;;;;12.77;1.95;;;;;;;;;;5017713;28;20232;-37
2021/05/14 12:44:25;;;;;;;2.20;0.73;;;;;;;;;;5012424;28;20419;-36
2021/05/14 12:46:56;;;;;;;4.95;1.27;;;;;;;;;;5020147;28;20060;-37
2021/05/14 12:49:22;;;;;;;8.15;0.82;;;;;;;;;;5017420;28;20129;-36
2021/05/14 12:51:57;;;;;;;7.40;1.90;;;;;;;;;;5018093;28;20441;-37
2021/05/14 12:54:23;;;;;;;9.88;2.20;;;;;;;;;;5019911;28;20022;-37
2021/05/14 12:56:48;;;;;;;2.60;0.93;;;;;;;;;;5017105;28;20452;-36
2021/05/14 12:59:17;;;;;;;3.65;1.27;;;;;;;;;;5017359;28;20491;-37
2021/05/14 13:01:46;;;;;;;2.95;1.80;;;;;;;;;;5016920;28;20030;-36
2021/05/14 13:04:12;;;;;;;8.10;1.15;;;;;;;;;;5018532;28;20034;-37
2021/05/14 13:06:37;;;;;;;2.10;1.23;;;;;;;;;;5018073;28;20040;-36
2021/05/14 13:09:06;;;;;;;6.70;1.15;;;;;;;;;;5019796;28;20121;-37
2021/05/14 13:11:36;;;;;;;2.25;0.85;;;;;;;;;;5025305;28;20057;-37
2021/05/14 13:14:01;;;;;;;5.32;1.08;;;;;;;;;;5016960;28;20040;-36
2021/05/14 13:16:27;;;;;;;16.23;1.40;;;;;;;;;;5018641;28;20030;-36
2021/05/14 13:18:52;;;;;;;3.78;0.57;;;;;;;;;;5020564;28;20045;-36
2021/05/14 13:21:17;;;;;;;2.22;0.95;;;;;;;;;;5020600;28;20026;-36
2021/05/14 13:23:43;;;;;;;3.33;1.05;;;;;;;;;;5019892;28;20500;-37
2021/05/14 13:26:08;;;;;;;3.72;0.95;;;;;;;;;;5021876;28;20029;-37
2021/05/14 13:28:34;;;;;;;3.33;1.35;;;;;;;;;;5022358;28;20694;-37
2021/05/14 13:30:59;;;;;;;4.75;0.93;;;;;;;;;;5019903;28;20251;-37
2021/05/14 13:33:24;;;;;;;10.90;0.52;;;;;;;;;;5015581;28;20029;-37
2021/05/14 13:35:50;;;;;;;10.82;7.30;;;;;;;;;;5020704;28;20052;-37
2021/05/14 13:38:15;;;;;;;12.13;1.42;;;;;;;;;;5019015;28;20579;-37
2021/05/14 13:40:40;;;;;;;1.25;0.65;;;;;;;;;;5019968;28;20052;-37
2021/05/14 13:43:06;;;;;;;4.63;0.93;;;;;;;;;;5019717;28;20117;-37
2021/05/14 13:45:31;;;;;;;6.80;1.40;;;;;;;;;;5018261;28;20030;-37
2021/05/14 13:48:01;;;;;;;3.72;0.50;;;;;;;;;;5021066;28;20478;-38
2021/05/14 13:50:26;;;;;;;3.90;1.08;;;;;;;;;;5020824;28;20038;-37
2021/05/14 13:52:52;;;;;;;1.10;0.20;;;;;;;;;;5021760;28;20143;-37
2021/05/14 13:55:17;;;;;;;1.85;0.57;;;;;;;;;;5020842;28;20117;-37
2021/05/14 13:57:42;;;;;;;5.88;0.57;;;;;;;;;;5019184;28;20026;-37
2021/05/14 14:00:08;;;;;;;1.50;0.30;;;;;;;;;;5020518;28;20561;-38
2021/05/14 14:02:33;;;;;;;1.42;0.45;;;;;;;;;;5020125;28;20022;-37
2021/05/14 14:04:59;;;;;;;32.75;1.42;;;;;;;;;;5019625;28;20041;-37
2021/05/14 14:07:24;;;;;;;2.45;1.35;;;;;;;;;;5020146;28;20056;-37
2021/05/14 14:09:49;;;;;;;1.00;0.75;;;;;;;;;;5019923;28;20080;-37
2021/05/14 14:12:15;;;;;;;3.03;0.93;;;;;;;;;;5021843;28;20034;-38
2021/05/14 14:14:40;;;;;;;1.00;0.57;;;;;;;;;;5022272;28;20033;-38
2021/05/14 14:17:05;;;;;;;0.95;0.45;;;;;;;;;;5020030;28;20497;-38
2021/05/14 14:19:31;;;;;;;0.30;0.30;;;;;;;;;;5020149;28;20041;-37
2021/05/14 14:21:56;;;;;;;2.10;0.70;;;;;;;;;;5020619;28;20104;-39
2021/05/14 14:24:22;;;;;;;0.95;0.63;;;;;;;;;;5019760;28;20053;-39
2021/05/14 14:26:47;;;;;;;1.52;1.00;;;;;;;;;;5018491;28;20033;-37
2021/05/14 14:29:13;;;;;;;6.18;1.20;;;;;;;;;;5016420;28;20118;-37
2021/05/14 14:31:39;;;;;;;1.95;0.68;;;;;;;;;;5022080;28;20046;-38
2021/05/14 14:34:04;;;;;;;3.42;0.52;;;;;;;;;;5019332;28;20102;-37
2021/05/14 14:36:30;;;;;;;1.30;0.47;;;;;;;;;;5019628;28;20037;-37
2021/05/14 14:38:55;;;;;;;2.08;0.73;;;;;;;;;;5019133;28;20033;-37
2021/05/14 14:41:20;;;;;;;0.90;0.45;;;;;;;;;;5015979;28;20091;-37
2021/05/14 14:43:46;;;;;;;0.60;0.20;;;;;;;;;;5018572;28;20064;-37